Time;durP1;ratioP1;P1;durP2;ratioP2;P2;SDS_P1;SDS_P2;PMS_P1;PMS_P2;Temp;Humidity;BMP_temperature;BMP_pressure;BME280_temperature;BME280_humidity;BME280_pressure;Samples;Min_cycle;Max_cycle;Signal;HPM_P1;HPM_P2
2023/03/06 00:00:34;;;;;;;26.45;10.85;;;;;;;2.04;68.65;95512.81;5051195;28;20051;-72
2023/03/06 00:03:01;;;;;;;32.60;12.13;;;;;;;1.97;68.55;95509.66;5051380;28;20045;-72
2023/03/06 00:05:27;;;;;;;28.02;10.45;;;;;;;1.95;68.75;95509.94;5059317;28;20052;-72
2023/03/06 00:07:54;;;;;;;23.58;10.88;;;;;;;1.97;68.73;95506.97;5051429;28;20166;-72
2023/03/06 00:10:24;;;;;;;26.83;10.52;;;;;;;1.99;68.85;95508.28;5051190;28;20048;-72
2023/03/06 00:12:51;;;;;;;28.05;11.57;;;;;;;1.78;68.96;95510.38;5051115;28;20040;-73
2023/03/06 00:15:18;;;;;;;28.80;10.73;;;;;;;1.82;69.29;95516.75;5050447;28;20037;-73
2023/03/06 00:17:44;;;;;;;27.63;10.20;;;;;;;1.86;69.10;95500.88;5051238;28;20044;-72
2023/03/06 00:20:12;;;;;;;27.30;11.13;;;;;;;1.83;69.54;95491.53;5050957;28;20044;-72
2023/03/06 00:22:39;;;;;;;27.27;11.00;;;;;;;1.82;69.17;95495.28;5051115;28;20052;-72
2023/03/06 00:25:07;;;;;;;30.77;11.98;;;;;;;1.85;69.39;95491.25;5050481;28;20057;-72
2023/03/06 00:27:35;;;;;;;26.55;11.20;;;;;;;1.90;69.36;95488.50;5051256;28;20051;-72
2023/03/06 00:30:01;;;;;;;27.15;10.73;;;;;;;1.93;69.74;95489.81;5048552;28;20049;-72
2023/03/06 00:32:28;;;;;;;27.05;10.65;;;;;;;1.90;69.61;95483.13;5050541;28;20053;-72
2023/03/06 00:34:55;;;;;;;29.13;11.48;;;;;;;1.90;69.50;95485.81;5050995;28;20045;-72
2023/03/06 00:37:24;;;;;;;30.88;12.00;;;;;;;1.87;69.64;95486.38;5050046;28;20059;-73
2023/03/06 00:39:50;;;;;;;25.35;11.45;;;;;;;1.89;70.09;95480.75;5051125;28;20059;-72
2023/03/06 00:42:17;;;;;;;29.45;11.38;;;;;;;1.87;70.60;95472.97;5050249;28;20640;-73
2023/03/06 00:44:46;;;;;;;29.00;12.65;;;;;;;1.79;70.79;95466.34;5050744;28;20044;-72
2023/03/06 00:47:15;;;;;;;32.13;12.25;;;;;;;1.82;70.76;95462.28;5049863;28;20055;-72
2023/03/06 00:49:42;;;;;;;26.23;11.88;;;;;;;1.83;71.00;95456.63;5049508;28;20183;-72
2023/03/06 00:52:09;;;;;;;28.83;12.05;;;;;;;1.88;71.38;95463.00;5049533;28;20047;-72
2023/03/06 00:54:36;;;;;;;32.55;11.73;;;;;;;1.89;71.24;95456.59;5062645;28;20052;-72
2023/03/06 00:57:02;;;;;;;28.55;12.07;;;;;;;1.89;71.45;95453.91;5070068;28;20424;-74
2023/03/06 00:59:29;;;;;;;31.15;12.70;;;;;;;1.88;71.53;95446.91;5070934;28;20056;-73
2023/03/06 01:01:57;;;;;;;26.20;11.88;;;;;;;1.69;72.08;95444.16;5062567;28;20041;-72
2023/03/06 01:04:23;;;;;;;32.17;13.02;;;;;;;1.72;71.91;95446.25;5050241;28;20049;-73
2023/03/06 01:06:50;;;;;;;30.65;12.32;;;;;;;1.73;71.79;95439.84;5050492;28;20385;-72
2023/03/06 01:09:16;;;;;;;29.55;11.68;;;;;;;1.77;71.96;95433.59;5050133;28;20036;-73
2023/03/06 01:11:43;;;;;;;28.73;11.65;;;;;;;1.75;71.97;95427.72;5050443;28;20041;-72
2023/03/06 01:14:10;;;;;;;33.17;13.15;;;;;;;1.73;71.84;95434.47;5049906;28;20057;-72
2023/03/06 01:16:36;;;;;;;28.60;11.57;;;;;;;1.74;71.70;95420.75;5050468;28;20036;-72
2023/03/06 01:19:04;;;;;;;31.52;12.25;;;;;;;1.77;71.65;95414.81;5049704;28;20514;-73
2023/03/06 01:21:31;;;;;;;30.13;12.82;;;;;;;1.74;72.04;95412.72;5049552;28;20056;-73
2023/03/06 01:23:57;;;;;;;32.22;12.00;;;;;;;1.73;72.16;95413.78;5049929;28;20053;-73
2023/03/06 01:26:24;;;;;;;29.33;12.05;;;;;;;1.68;72.09;95400.44;5049930;28;20048;-72
2023/03/06 01:28:50;;;;;;;34.70;12.68;;;;;;;1.73;72.87;95405.75;5049986;28;20520;-72
2023/03/06 01:31:16;;;;;;;38.63;14.80;;;;;;;1.62;73.15;95401.56;5049428;28;20570;-72
2023/03/06 01:33:43;;;;;;;33.35;13.10;;;;;;;1.63;73.28;95392.44;5049551;28;20496;-73
2023/03/06 01:36:13;;;;;;;31.00;12.48;;;;;;;1.59;73.59;95395.97;5049386;28;20431;-72
2023/03/06 01:38:39;;;;;;;34.17;12.52;;;;;;;1.64;73.71;95388.66;5050052;28;20045;-72
2023/03/06 01:41:06;;;;;;;38.80;13.95;;;;;;;1.63;73.64;95381.69;5049442;28;20120;-72
2023/03/06 01:43:35;;;;;;;36.60;12.68;;;;;;;1.65;73.75;95376.84;5048467;28;20041;-72
2023/03/06 01:46:23;;;;;;;39.08;14.00;;;;;;;1.61;73.88;95375.78;5049298;28;20049;-71
2023/03/06 01:48:53;;;;;;;38.65;13.68;;;;;;;1.61;74.02;95367.75;5049376;28;20060;-73
2023/03/06 01:51:22;;;;;;;39.28;13.07;;;;;;;1.66;74.09;95356.97;5048992;28;20464;-72
2023/03/06 01:53:50;;;;;;;41.60;13.45;;;;;;;1.63;74.18;95352.19;5049750;28;20041;-72
2023/03/06 01:56:17;;;;;;;42.95;13.95;;;;;;;1.61;74.18;95345.47;5049321;28;20400;-72
2023/03/06 01:58:45;;;;;;;40.65;13.15;;;;;;;1.55;74.35;95352.78;5049733;28;20415;-72
2023/03/06 02:01:12;;;;;;;38.45;13.63;;;;;;;1.59;74.19;95347.66;5048838;28;20127;-73
2023/03/06 02:03:41;;;;;;;39.30;14.05;;;;;;;1.48;75.06;95341.59;5048327;28;20478;-74
2023/03/06 02:06:07;;;;;;;37.67;13.13;;;;;;;1.51;74.94;95346.38;5048988;28;20568;-73
2023/03/06 02:08:35;;;;;;;39.58;13.32;;;;;;;1.54;74.72;95346.63;5049397;28;20048;-72
2023/03/06 02:11:09;;;;;;;53.75;15.40;;;;;;;1.59;74.94;95337.72;5048142;28;20063;-72
2023/03/06 02:13:36;;;;;;;;;;;;;;;1.62;74.81;95341.72;5049970;28;20053;-72
2023/03/06 02:16:03;;;;;;;37.63;12.45;;;;;;;1.58;75.22;95341.50;5048070;28;19964;-72
2023/03/06 02:18:30;;;;;;;52.63;14.30;;;;;;;1.52;75.19;95331.91;5048904;28;20045;-72
2023/03/06 02:20:58;;;;;;;33.47;12.40;;;;;;;1.51;75.70;95327.59;5049180;28;20041;-72
2023/03/06 02:23:31;;;;;;;32.67;12.85;;;;;;;1.59;75.55;95326.19;5048591;28;20037;-72
2023/03/06 02:26:01;;;;;;;30.67;12.85;;;;;;;1.61;75.25;95324.00;5048725;28;20041;-72
2023/03/06 02:28:28;;;;;;;36.35;13.02;;;;;;;1.58;75.60;95325.41;5069161;28;20491;-72
2023/03/06 02:30:56;;;;;;;37.67;13.15;;;;;;;1.51;75.36;95315.03;5069236;28;20154;-72
2023/03/06 02:33:25;;;;;;;34.33;12.57;;;;;;;1.51;75.67;95308.81;5070741;28;20048;-74
2023/03/06 02:35:54;;;;;;;34.13;12.95;;;;;;;1.51;75.74;95308.81;5072828;28;20052;-74
2023/03/06 02:38:23;;;;;;;43.47;13.73;;;;;;;1.45;76.27;95304.63;5072466;28;20052;-74
2023/03/06 02:40:51;;;;;;;36.97;12.25;;;;;;;1.47;76.06;95299.78;5072737;28;20518;-74
2023/03/06 02:43:22;;;;;;;32.40;12.73;;;;;;;1.42;76.22;95299.84;5072510;28;20071;-71
2023/03/06 02:45:50;;;;;;;37.17;13.15;;;;;;;1.46;76.27;95295.47;5072591;28;20514;-74
2023/03/06 02:48:18;;;;;;;35.45;12.52;;;;;;;1.48;76.37;95294.13;5071662;28;20048;-74
2023/03/06 02:50:45;;;;;;;37.03;13.00;;;;;;;1.51;76.58;95298.09;5072593;28;20047;-72
2023/03/06 02:53:15;;;;;;;46.60;13.27;;;;;;;1.55;76.86;95293.75;5071945;28;20123;-74
2023/03/06 02:55:41;;;;;;;37.65;12.45;;;;;;;1.60;76.57;95298.28;5072730;28;20044;-74
2023/03/06 02:58:08;;;;;;;34.55;12.60;;;;;;;1.59;76.75;95294.78;5072303;28;20052;-73
2023/03/06 03:00:36;;;;;;;37.55;12.80;;;;;;;1.53;76.53;95286.00;5072062;28;20044;-74
2023/03/06 03:03:04;;;;;;;34.40;13.13;;;;;;;1.54;76.79;95286.81;5072008;28;20044;-73
2023/03/06 03:05:31;;;;;;;34.97;13.50;;;;;;;1.51;76.34;95282.81;5072519;28;20411;-74
2023/03/06 03:07:57;;;;;;;32.15;11.85;;;;;;;1.52;76.52;95275.56;5072426;28;20055;-73
2023/03/06 03:10:24;;;;;;;36.03;13.13;;;;;;;1.50;76.29;95272.38;5072185;28;20048;-73
2023/03/06 03:12:51;;;;;;;38.97;14.00;;;;;;;1.39;76.95;95265.53;5072502;28;20048;-74
2023/03/06 03:15:18;;;;;;;33.78;13.25;;;;;;;1.38;76.89;95271.97;5071785;28;20633;-73
2023/03/06 03:17:46;;;;;;;35.20;12.90;;;;;;;1.39;77.11;95278.94;5072597;28;20412;-71
2023/03/06 03:20:15;;;;;;;34.83;12.88;;;;;;;1.43;77.26;95274.59;5072032;28;20117;-71
2023/03/06 03:22:42;;;;;;;34.13;12.60;;;;;;;1.45;77.33;95272.41;5075995;28;20056;-73
2023/03/06 03:25:09;;;;;;;36.72;13.10;;;;;;;1.45;77.36;95269.75;5076752;28;20074;-72
2023/03/06 03:27:35;;;;;;;32.05;12.95;;;;;;;1.43;77.38;95269.25;5076825;28;20040;-72
2023/03/06 03:30:03;;;;;;;35.33;13.57;;;;;;;1.38;77.24;95262.03;5077073;28;20044;-72
2023/03/06 03:32:29;;;;;;;34.00;13.38;;;;;;;1.38;77.63;95261.25;5075031;28;20041;-74
2023/03/06 03:34:57;;;;;;;38.60;13.05;;;;;;;1.33;77.59;95253.25;5073639;28;20040;-71
2023/03/06 03:37:24;;;;;;;36.97;13.63;;;;;;;1.27;77.67;95250.63;5070685;28;20573;-71
2023/03/06 03:39:50;;;;;;;33.95;12.93;;;;;;;1.25;77.89;95252.00;5075240;28;20045;-72
2023/03/06 03:42:17;;;;;;;29.17;11.68;;;;;;;1.26;78.14;95248.25;5076207;28;20117;-72
2023/03/06 03:44:44;;;;;;;34.00;12.95;;;;;;;1.24;78.10;95245.84;5074631;28;20040;-74
2023/03/06 03:47:10;;;;;;;30.13;12.30;;;;;;;1.18;78.42;95236.25;5072935;28;20534;-71
2023/03/06 03:49:37;;;;;;;34.05;13.02;;;;;;;1.15;78.47;95242.22;5072566;28;20046;-72
2023/03/06 03:52:05;;;;;;;38.83;14.05;;;;;;;1.14;78.71;95237.91;5072184;28;20519;-74
2023/03/06 03:54:31;;;;;;;39.97;13.90;;;;;;;1.12;78.92;95241.97;5071707;28;20056;-72
2023/03/06 03:56:58;;;;;;;32.80;12.93;;;;;;;1.10;78.84;95234.22;5071825;28;20495;-72
2023/03/06 03:59:24;;;;;;;38.45;14.52;;;;;;;0.99;79.29;95232.69;5071692;28;20067;-72
2023/03/06 04:01:51;;;;;;;37.75;14.35;;;;;;;0.99;79.29;95232.69;5072243;28;20488;-72
2023/03/06 04:04:17;;;;;;;31.52;13.38;;;;;;;0.99;79.30;95235.38;5071533;28;20040;-73
2023/03/06 04:06:44;;;;;;;39.47;14.20;;;;;;;0.99;79.57;95238.06;5071844;28;20040;-72
2023/03/06 04:09:12;;;;;;;34.80;12.75;;;;;;;1.04;79.50;95224.59;5071564;28;20036;-72
2023/03/06 04:11:38;;;;;;;37.63;13.82;;;;;;;1.01;79.69;95225.19;5072318;28;20040;-73
2023/03/06 04:14:07;;;;;;;34.15;13.65;;;;;;;0.98;79.77;95215.03;5071316;28;20037;-73
2023/03/06 04:16:33;;;;;;;43.75;14.23;;;;;;;0.95;80.08;95215.63;5071988;28;20065;-73
2023/03/06 04:19:00;;;;;;;36.53;14.18;;;;;;;0.95;79.90;95215.63;5071656;28;20036;-72
2023/03/06 04:21:26;;;;;;;40.90;14.63;;;;;;;0.94;80.26;95217.50;5069831;28;20463;-72
2023/03/06 04:23:53;;;;;;;39.88;15.65;;;;;;;0.95;80.13;95215.63;5070221;28;20043;-72
2023/03/06 04:26:21;;;;;;;40.70;13.75;;;;;;;0.92;80.29;95213.50;5069624;28;20048;-72
2023/03/06 04:28:47;;;;;;;39.97;14.40;;;;;;;0.95;80.11;95210.25;5071176;28;20037;-72
2023/03/06 04:31:14;;;;;;;39.83;14.60;;;;;;;0.94;80.38;95205.94;5070011;28;20040;-74
2023/03/06 04:33:40;;;;;;;35.13;13.27;;;;;;;0.97;80.27;95208.06;5070858;28;20047;-74
2023/03/06 04:36:07;;;;;;;40.15;13.77;;;;;;;0.97;80.20;95208.06;5070104;28;20044;-73
2023/03/06 04:38:34;;;;;;;33.25;13.07;;;;;;;0.98;80.28;95201.63;5071333;28;20128;-72
2023/03/06 04:41:00;;;;;;;40.22;13.27;;;;;;;1.00;80.18;95202.16;5071062;28;20041;-72
2023/03/06 04:43:28;;;;;;;36.65;13.68;;;;;;;1.02;80.30;95205.34;5070401;28;20047;-72
2023/03/06 04:45:55;;;;;;;36.45;13.25;;;;;;;1.04;80.29;95208.53;5071004;28;20045;-72
2023/03/06 04:48:21;;;;;;;38.30;13.90;;;;;;;1.07;80.06;95209.84;5070138;28;22315;-72
2023/03/06 04:50:47;;;;;;;41.55;15.30;;;;;;;0.99;80.24;95206.72;5070838;28;20047;-72
2023/03/06 04:53:15;;;;;;;52.88;15.50;;;;;;;0.99;80.59;95200.53;5069953;28;20044;-72
2023/03/06 04:55:42;;;;;;;35.97;12.80;;;;;;;1.09;80.11;95199.63;5070282;28;20068;-72
2023/03/06 04:58:11;;;;;;;43.17;14.25;;;;;;;1.09;80.19;95195.06;5070681;28;20510;-72
2023/03/06 05:00:38;;;;;;;40.72;14.73;;;;;;;1.14;80.23;95203.03;5070561;28;20052;-72
2023/03/06 05:03:05;;;;;;;40.10;14.07;;;;;;;1.20;80.25;95191.19;5069524;28;20051;-72
2023/03/06 05:05:31;;;;;;;41.55;14.07;;;;;;;1.22;80.07;95189.00;5069905;28;20055;-72
2023/03/06 05:07:58;;;;;;;45.70;15.15;;;;;;;1.25;80.11;95193.00;5070198;28;20036;-72
2023/03/06 05:10:24;;;;;;;35.83;14.35;;;;;;;1.24;80.17;95180.69;5070045;28;20048;-72
2023/03/06 05:12:51;;;;;;;39.15;13.68;;;;;;;1.21;80.04;95187.44;5070198;28;20048;-72
2023/03/06 05:15:18;;;;;;;44.22;13.40;;;;;;;1.22;80.01;95183.66;5069157;28;20132;-72
2023/03/06 05:17:46;;;;;;;35.90;13.70;;;;;;;1.24;79.78;95186.03;5069666;28;20040;-72
2023/03/06 05:20:14;;;;;;;36.42;13.75;;;;;;;1.25;79.86;95185.78;5069256;28;20123;-72
2023/03/06 05:22:41;;;;;;;38.13;14.30;;;;;;;1.28;79.83;95182.50;5070856;28;20051;-72
2023/03/06 05:25:09;;;;;;;43.33;14.68;;;;;;;1.32;79.77;95176.56;5069967;28;20044;-72
2023/03/06 05:27:36;;;;;;;36.72;12.75;;;;;;;1.32;79.68;95177.38;5070308;28;20475;-72
2023/03/06 05:30:03;;;;;;;36.15;13.30;;;;;;;1.34;79.52;95185.13;5066807;28;20044;-72
2023/03/06 05:32:29;;;;;;;48.72;14.65;;;;;;;1.35;79.63;95181.34;5069805;28;20048;-72
2023/03/06 05:34:57;;;;;;;43.40;14.63;;;;;;;1.34;79.51;95183.22;5070169;28;20040;-72
2023/03/06 05:37:23;;;;;;;38.03;14.23;;;;;;;1.33;79.38;95183.53;5069995;28;20040;-73
2023/03/06 05:39:50;;;;;;;42.17;14.45;;;;;;;1.28;79.18;95177.13;5069838;28;20560;-73
2023/03/06 05:42:17;;;;;;;38.25;14.32;;;;;;;1.32;78.91;95181.94;5069563;28;20453;-72
2023/03/06 05:44:44;;;;;;;39.67;14.10;;;;;;;1.34;79.16;95179.75;5070427;28;20068;-72
2023/03/06 05:47:10;;;;;;;37.28;13.95;;;;;;;1.11;78.34;95182.19;5069318;28;20044;-73
2023/03/06 05:49:37;;;;;;;44.00;16.65;;;;;;;1.17;78.58;95181.03;5069563;28;20050;-72
2023/03/06 05:52:06;;;;;;;38.03;14.85;;;;;;;1.13;78.42;95169.28;5069382;28;20040;-73
2023/03/06 05:54:34;;;;;;;39.70;14.70;;;;;;;1.14;78.35;95176.22;5070431;28;20415;-74
2023/03/06 05:57:01;;;;;;;38.15;14.18;;;;;;;1.18;78.61;95181.84;5069796;28;20044;-73
2023/03/06 05:59:28;;;;;;;32.15;13.52;;;;;;;1.18;78.77;95184.50;5069906;28;20090;-74
2023/03/06 06:01:54;;;;;;;37.05;14.50;;;;;;;1.18;78.68;95182.63;5070261;28;20036;-72
2023/03/06 06:04:21;;;;;;;38.58;15.10;;;;;;;1.22;78.66;95186.34;5068847;28;20068;-74
2023/03/06 06:06:51;;;;;;;33.00;12.95;;;;;;;1.23;78.93;95179.88;5071167;28;20082;-74
2023/03/06 06:09:19;;;;;;;41.15;15.20;;;;;;;1.22;78.86;95183.66;5072702;28;20048;-74
2023/03/06 06:11:46;;;;;;;36.92;14.40;;;;;;;1.27;78.85;95175.53;5074706;28;20119;-74
2023/03/06 06:14:13;;;;;;;36.75;14.43;;;;;;;1.34;79.20;95177.06;5076308;28;20040;-78
2023/03/06 06:16:40;;;;;;;36.25;14.57;;;;;;;1.40;79.16;95186.66;5097539;28;20071;-79
2023/03/06 06:19:07;;;;;;;41.10;14.70;;;;;;;1.32;79.29;95184.63;5085445;28;20063;-76
2023/03/06 06:21:33;;;;;;;31.35;13.93;;;;;;;1.39;78.51;95187.75;5076386;28;20079;-73
2023/03/06 06:24:00;;;;;;;34.03;14.43;;;;;;;1.41;78.55;95180.19;5077750;28;20037;-75
2023/03/06 06:26:28;;;;;;;34.08;13.40;;;;;;;1.47;78.13;95179.06;5077074;28;20769;-75
2023/03/06 06:28:54;;;;;;;39.03;15.35;;;;;;;1.48;78.07;95175.28;5074057;28;20136;-74
2023/03/06 06:31:21;;;;;;;33.17;14.13;;;;;;;1.58;78.02;95185.09;5071608;28;20048;-76
2023/03/06 06:33:47;;;;;;;40.13;14.68;;;;;;;1.58;78.28;95182.41;5073441;28;20040;-75
2023/03/06 06:36:17;;;;;;;34.00;14.00;;;;;;;1.63;78.56;95185.81;5072000;28;20036;-75
2023/03/06 06:38:44;;;;;;;36.35;13.65;;;;;;;1.68;78.24;95191.09;5073379;28;20041;-75
2023/03/06 06:41:11;;;;;;;36.60;14.73;;;;;;;1.55;78.19;95197.19;5072525;28;20041;-75
2023/03/06 06:43:39;;;;;;;35.30;13.90;;;;;;;1.65;78.01;95194.34;5073606;28;20051;-75
2023/03/06 06:46:05;;;;;;;34.55;14.27;;;;;;;1.66;77.30;95187.91;5072614;28;20048;-75
2023/03/06 06:48:32;;;;;;;35.75;14.50;;;;;;;1.60;77.57;95186.38;5073165;28;20491;-74
2023/03/06 06:50:59;;;;;;;36.33;14.15;;;;;;;1.61;77.70;95190.66;5073095;28;20044;-73
2023/03/06 06:53:26;;;;;;;35.50;14.82;;;;;;;1.63;77.70;95187.69;5072311;28;20055;-76
2023/03/06 06:55:52;;;;;;;35.60;14.98;;;;;;;1.58;78.28;95190.44;5073198;28;20040;-73
2023/03/06 06:58:19;;;;;;;42.55;15.65;;;;;;;1.65;77.94;95189.00;5072768;28;20048;-74
2023/03/06 07:00:46;;;;;;;32.83;14.05;;;;;;;1.73;77.52;95188.34;5068650;28;20128;-74
2023/03/06 07:03:15;;;;;;;36.63;14.95;;;;;;;1.74;77.07;95195.31;5072769;28;20476;-74
2023/03/06 07:05:41;;;;;;;33.97;14.30;;;;;;;1.72;76.94;95194.81;5073102;28;20044;-74
2023/03/06 07:08:08;;;;;;;33.72;15.10;;;;;;;1.75;77.09;95191.53;5072903;28;20045;-73
2023/03/06 07:10:38;;;;;;;38.03;14.45;;;;;;;1.86;76.74;95186.81;5073124;28;20071;-73
2023/03/06 07:13:04;;;;;;;38.60;13.77;;;;;;;1.81;77.19;95190.38;5072499;28;20037;-76
2023/03/06 07:15:31;;;;;;;37.42;14.05;;;;;;;1.82;77.14;95197.31;5072910;28;20052;-76
2023/03/06 07:18:00;;;;;;;37.70;15.23;;;;;;;1.88;76.91;95199.94;5071966;28;20044;-75
2023/03/06 07:20:26;;;;;;;33.13;13.93;;;;;;;1.87;77.18;95198.34;5072112;28;20617;-75
2023/03/06 07:22:53;;;;;;;31.27;13.55;;;;;;;1.94;76.93;95198.78;5072715;28;20063;-75
2023/03/06 07:25:20;;;;;;;32.58;14.40;;;;;;;1.91;77.50;95199.38;5071747;28;20503;-76
2023/03/06 07:27:46;;;;;;;30.23;13.75;;;;;;;1.98;76.82;95195.22;5072513;28;20066;-75
2023/03/06 07:30:13;;;;;;;28.83;13.48;;;;;;;2.04;77.18;95198.66;5072016;28;20044;-75
2023/03/06 07:32:40;;;;;;;31.88;14.02;;;;;;;2.03;76.75;95191.66;5072037;28;20048;-75
2023/03/06 07:35:09;;;;;;;36.55;15.15;;;;;;;2.01;76.35;95193.84;5071803;28;20037;-76
2023/03/06 07:37:36;;;;;;;33.42;13.90;;;;;;;2.21;76.16;95198.91;5072730;28;20048;-75
2023/03/06 07:40:03;;;;;;;38.97;14.73;;;;;;;2.28;75.62;95193.94;5071956;28;20466;-75
2023/03/06 07:42:30;;;;;;;33.17;14.18;;;;;;;2.11;75.43;95204.44;5072112;28;20136;-73
2023/03/06 07:44:56;;;;;;;34.53;14.52;;;;;;;1.57;76.99;95205.75;5072601;28;20067;-75
2023/03/06 07:47:23;;;;;;;32.95;13.63;;;;;;;1.67;76.92;95205.63;5071576;28;20041;-76
2023/03/06 07:49:49;;;;;;;36.60;13.57;;;;;;;1.89;76.45;95204.25;5071958;28;20043;-76
2023/03/06 07:52:17;;;;;;;37.92;15.13;;;;;;;2.02;75.33;95200.81;5071712;28;20040;-74
2023/03/06 07:54:43;;;;;;;31.98;12.98;;;;;;;2.18;75.07;95204.84;5071928;28;20094;-74
2023/03/06 07:57:10;;;;;;;31.33;13.82;;;;;;;2.31;74.89;95209.50;5071260;28;20040;-76
2023/03/06 07:59:36;;;;;;;34.75;14.48;;;;;;;2.08;73.73;95210.38;5071897;28;20698;-76
2023/03/06 08:02:03;;;;;;;33.35;14.75;;;;;;;1.92;74.13;95211.69;5071152;28;20044;-76
2023/03/06 08:04:29;;;;;;;31.20;12.95;;;;;;;2.05;73.36;95210.97;5071671;28;20041;-75
2023/03/06 08:06:58;;;;;;;35.90;14.82;;;;;;;2.14;72.92;95216.47;5071335;28;20043;-73
2023/03/06 08:09:26;;;;;;;33.00;14.48;;;;;;;2.31;72.52;95214.06;5071190;28;20040;-74
2023/03/06 08:11:52;;;;;;;41.67;15.63;;;;;;;2.44;71.53;95218.66;5071912;28;20041;-74
2023/03/06 08:14:19;;;;;;;37.05;14.18;;;;;;;2.60;71.38;95219.22;5071362;28;20071;-74
2023/03/06 08:16:45;;;;;;;33.97;12.90;;;;;;;2.68;70.92;95215.88;5071407;28;20048;-74
2023/03/06 08:19:12;;;;;;;33.10;14.18;;;;;;;2.79;69.37;95213.78;5071016;28;20040;-74
2023/03/06 08:21:38;;;;;;;34.55;14.38;;;;;;;2.88;69.32;95215.50;5071189;28;20079;-73
2023/03/06 08:24:05;;;;;;;33.17;13.40;;;;;;;3.03;69.73;95208.25;5070885;28;20041;-74
2023/03/06 08:26:33;;;;;;;33.65;13.60;;;;;;;2.63;68.25;95213.25;5071381;28;20044;-74
2023/03/06 08:29:02;;;;;;;32.25;13.48;;;;;;;2.48;70.04;95213.50;5071548;28;20049;-74
2023/03/06 08:31:31;;;;;;;34.65;15.27;;;;;;;2.64;69.56;95222.91;5070829;28;20033;-75
2023/03/06 08:33:59;;;;;;;34.33;14.75;;;;;;;2.53;71.42;95224.19;5071157;28;20050;-76
2023/03/06 08:36:26;;;;;;;34.08;13.63;;;;;;;2.67;72.17;95227.72;5070697;28;20051;-74
2023/03/06 08:38:52;;;;;;;34.65;14.70;;;;;;;2.85;73.03;95228.72;5071301;28;20049;-75
2023/03/06 08:41:19;;;;;;;32.95;14.85;;;;;;;2.63;71.41;95232.06;5070838;28;20109;-75
2023/03/06 08:43:48;;;;;;;33.22;12.75;;;;;;;2.79;71.99;95225.34;5071103;28;20098;-74
2023/03/06 08:46:17;;;;;;;31.25;13.20;;;;;;;2.79;72.83;95225.34;5070056;28;20060;-74
2023/03/06 08:48:46;;;;;;;34.63;13.57;;;;;;;2.88;73.59;95233.53;5071206;28;20052;-74
2023/03/06 08:51:13;;;;;;;32.30;13.70;;;;;;;3.04;71.24;95228.66;5070539;28;20044;-74
2023/03/06 08:53:39;;;;;;;37.15;13.75;;;;;;;3.19;71.35;95239.16;5070942;28;20049;-74
2023/03/06 08:56:07;;;;;;;32.08;13.23;;;;;;;3.34;71.24;95230.78;5070469;28;20049;-73
2023/03/06 08:58:33;;;;;;;31.23;13.98;;;;;;;3.05;70.47;95235.63;5071038;28;20052;-74
2023/03/06 09:01:02;;;;;;;30.35;13.13;;;;;;;3.29;71.85;95238.13;5070483;28;20036;-74
2023/03/06 09:03:28;;;;;;;31.85;13.82;;;;;;;3.23;72.90;95245.50;5070364;28;20075;-74
2023/03/06 09:05:55;;;;;;;32.67;13.52;;;;;;;3.21;72.49;95236.16;5070085;28;20032;-74
2023/03/06 09:08:21;;;;;;;30.83;14.30;;;;;;;3.20;72.62;95240.72;5069868;28;20056;-74
2023/03/06 09:10:48;;;;;;;31.75;14.07;;;;;;;3.36;71.25;95250.09;5070752;28;20051;-75
2023/03/06 09:13:14;;;;;;;33.42;14.02;;;;;;;3.19;71.17;95233.75;5070255;28;20041;-74
2023/03/06 09:15:41;;;;;;;39.58;14.93;;;;;;;3.24;70.68;95240.94;5070130;28;20049;-73
2023/03/06 09:18:09;;;;;;;30.67;13.88;;;;;;;3.23;71.06;95232.06;5070025;28;20051;-74
2023/03/06 09:20:36;;;;;;;34.05;14.18;;;;;;;3.29;70.71;95238.94;5070260;28;20063;-74
2023/03/06 09:23:02;;;;;;;33.55;14.20;;;;;;;3.42;70.50;95233.84;5069893;28;20052;-74
2023/03/06 09:25:29;;;;;;;36.30;14.00;;;;;;;3.16;69.54;95239.72;5070300;28;20051;-74
2023/03/06 09:27:55;;;;;;;28.02;13.75;;;;;;;3.22;69.83;95232.34;5070251;28;20043;-75
2023/03/06 09:30:22;;;;;;;30.48;13.60;;;;;;;3.31;69.92;95242.13;5069673;28;20060;-73
2023/03/06 09:32:48;;;;;;;54.90;14.77;;;;;;;3.37;69.57;95234.75;5070238;28;20048;-74
2023/03/06 09:35:17;;;;;;;59.17;15.15;;;;;;;3.21;70.24;95238.84;5069440;28;20064;-74
2023/03/06 09:37:44;;;;;;;51.65;14.45;;;;;;;3.39;68.11;95236.06;5070156;28;20038;-74
2023/03/06 09:40:16;;;;;;;48.72;14.68;;;;;;;3.54;68.27;95239.53;5069570;28;20044;-74
2023/03/06 09:42:43;;;;;;;51.65;14.77;;;;;;;3.35;67.52;95237.75;5069777;28;20071;-73
2023/03/06 09:45:12;;;;;;;61.88;14.52;;;;;;;3.44;67.46;95239.72;5069373;28;20048;-77
2023/03/06 09:47:47;;;;;;;49.95;14.27;;;;;;;3.24;68.21;95249.81;5070154;28;20068;-73
2023/03/06 09:50:29;;;;;;;55.15;15.90;;;;;;;3.11;67.87;95245.19;5070187;28;20404;-74
2023/03/06 09:53:04;;;;;;;46.38;12.82;;;;;;;3.27;67.63;95241.13;5072249;28;20064;-73
2023/03/06 09:55:35;;;;;;;38.35;12.85;;;;;;;3.25;67.48;95242.53;5073693;28;20677;-74
2023/03/06 09:58:05;;;;;;;42.42;12.30;;;;;;;3.54;66.92;95239.53;5075532;28;20044;-74
2023/03/06 10:00:35;;;;;;;48.97;12.90;;;;;;;3.70;65.65;95238.09;5074706;28;20070;-73
2023/03/06 10:03:14;;;;;;;45.25;12.82;;;;;;;3.57;65.30;95233.56;5075170;28;20411;-74
2023/03/06 10:05:47;;;;;;;27.27;10.35;;;;;;;3.69;65.40;95230.34;5075230;28;20047;-73
2023/03/06 10:08:23;;;;;;;46.35;9.90;;;;;;;4.02;63.96;95236.34;5072901;28;20041;-74
2023/03/06 10:10:57;;;;;;;35.50;10.15;;;;;;;3.99;59.80;95234.28;5074771;28;20123;-74
2023/03/06 10:13:30;;;;;;;28.98;10.38;;;;;;;4.01;59.72;95237.47;5077010;28;20044;-74
2023/03/06 10:16:06;;;;;;;37.60;11.45;;;;;;;3.69;59.23;95233.81;5076580;28;20613;-73
2023/03/06 10:18:37;;;;;;;40.40;11.30;;;;;;;4.02;60.33;95228.28;5055808;28;20045;-73
2023/03/06 10:21:11;;;;;;;33.17;10.68;;;;;;;4.14;58.32;95232.03;5056868;28;20041;-76
2023/03/06 10:23:49;;;;;;;47.17;11.55;;;;;;;3.81;60.44;95228.75;5050334;28;20048;-76
2023/03/06 10:26:19;;;;;;;55.70;12.75;;;;;;;3.49;59.65;95228.84;5049037;28;20115;-76
2023/03/06 10:28:55;;;;;;;48.30;11.43;;;;;;;3.46;59.42;95226.78;5039342;28;20041;-75
2023/03/06 10:31:24;;;;;;;48.13;11.25;;;;;;;3.70;61.39;95215.78;5048810;28;20500;-76
2023/03/06 10:33:54;;;;;;;44.88;11.77;;;;;;;3.65;60.10;95222.06;5049507;28;20052;-74
2023/03/06 10:36:26;;;;;;;50.88;11.73;;;;;;;3.90;62.07;95221.53;5049020;28;20053;-75
2023/03/06 10:38:55;;;;;;;56.65;11.13;;;;;;;3.79;58.23;95225.53;5049593;28;20040;-73
2023/03/06 10:41:25;;;;;;;44.65;10.02;;;;;;;4.08;58.78;95221.69;5048763;28;22859;-75
2023/03/06 10:44:17;;;;;;;47.92;10.90;;;;;;;4.13;59.24;95218.88;5049443;28;20484;-73
2023/03/06 10:46:45;;;;;;;48.55;10.32;;;;;;;4.04;60.01;95215.31;5062572;28;20110;-74
2023/03/06 10:49:25;;;;;;;44.17;11.25;;;;;;;3.94;59.22;95216.34;5068854;28;20685;-74
2023/03/06 10:51:58;;;;;;;44.40;10.80;;;;;;;3.81;60.15;95209.91;5069386;28;20040;-74
2023/03/06 10:54:25;;;;;;;47.67;10.30;;;;;;;3.77;61.08;95208.91;5071049;28;20037;-72
2023/03/06 10:56:51;;;;;;;40.70;10.60;;;;;;;3.84;60.56;95209.28;5072904;28;20040;-74
2023/03/06 10:59:21;;;;;;;47.78;11.15;;;;;;;3.77;60.35;95208.91;5072354;28;20048;-74
2023/03/06 11:01:49;;;;;;;45.53;11.38;;;;;;;3.74;61.03;95208.69;5072750;28;20049;-73
2023/03/06 11:04:26;;;;;;;46.83;11.68;;;;;;;3.63;61.71;95208.13;5072425;28;20044;-73
2023/03/06 11:07:13;;;;;;;47.13;11.45;;;;;;;3.77;60.85;95211.59;5072439;28;20454;-74
2023/03/06 11:09:40;;;;;;;44.55;10.93;;;;;;;3.74;60.07;95206.81;5072413;28;20067;-74
2023/03/06 11:12:26;;;;;;;49.15;11.27;;;;;;;3.63;61.26;95197.34;5072293;28;20492;-73
2023/03/06 11:15:17;;;;;;;44.55;11.35;;;;;;;3.65;63.06;95208.59;5072960;28;20052;-74
2023/03/06 11:17:59;;;;;;;47.60;12.30;;;;;;;3.45;63.39;95204.47;5066814;28;20033;-73
2023/03/06 11:20:28;;;;;;;44.35;12.07;;;;;;;3.53;64.10;95202.94;5072123;28;20052;-74
2023/03/06 11:23:02;;;;;;;50.33;12.68;;;;;;;3.71;62.48;95202.03;5072578;28;20040;-73
2023/03/06 11:25:33;;;;;;;39.63;12.82;;;;;;;3.52;62.51;95199.47;5072200;28;20048;-74
2023/03/06 11:28:03;;;;;;;39.53;11.85;;;;;;;3.54;63.91;95199.16;5072549;28;20048;-74
2023/03/06 11:30:38;;;;;;;42.20;12.75;;;;;;;3.58;63.42;95208.22;5052300;28;20121;-73